Silver Shadow — C6FN6 — position and weather

sailwx.info

Track history (hours):
 
Tides and Currents Weather Stations Pressure Air Temp Water Temp Dewpoint Dewpoint Depression Visibility Wind Speed Wind Dir Waves Ship Positions

Silver Shadow

Operator: V Ships Leisure SAM

Last reported at 2019-Dec-11 22:15 UTC. Time now 2019-Dec-12 08:23 UTC.
Position N 17°12' W 062°43'.

Length 186 m; draft 6.2 m.

Type: Ship. MMSI: 308628000.

Date/timePositionNaut miles runAvg speedWind from/ knotsBaromVisibWave heightAir tempDewpointWater temp
2019-Dec-11 22:15N 17°12' W 062°43'26 2.3
2019-Dec-11 10:56N 17°29' W 063°05'2512.7
2019-Dec-11 08:59N 17°47' W 063°23'8215.0
2019-Dec-11 03:29N 18°09' W 064°47'816.4
2019-Dec-11 03:00N 18°10' W 064°54'6315.8
2019-Dec-10 23:00N 18°32' W 065°57'10 9.8
2019-Dec-10 22:00N 18°28' W 066°07'0 0.2
2019-Dec-10 20:30N 18°28' W 066°07'0 0.0
2019-Dec-10 18:28N 18°28' W 066°07'0 0.0
2019-Dec-10 16:31N 18°28' W 066°07'0 0.0
2019-Dec-10 14:28N 18°28' W 066°07'0 0.0
2019-Dec-10 12:58N 18°28' W 066°07'0 0.0
2019-Dec-10 12:28N 18°28' W 066°07'0 0.2
2019-Dec-10 11:30N 18°28' W 066°07'7 7.1
2019-Dec-10 10:30N 18°33' W 066°02'1611.6
2019-Dec-10 09:07N 18°32' W 065°45'111.4
2019-Dec-10 09:00N 18°32' W 065°43'2911.5
2019-Dec-10 06:30N 18°32' W 065°13'2311.5
2019-Dec-10 04:30N 18°32' W 064°49'1111.5
2019-Dec-10 03:30N 18°31' W 064°37'93 3.2
2019-Dec-08 22:05N 18°00' W 063°04'1 0.8
2019-Dec-08 20:28N 18°01' W 063°03'0 0.0
2019-Dec-08 19:58N 18°01' W 063°03'0 0.0
2019-Dec-08 17:46N 18°01' W 063°03'2 0.3
2019-Dec-08 10:58N 17°60' W 063°05'1210.5
2019-Dec-08 09:52N 17°50' W 063°10'910.7
2019-Dec-08 09:01N 17°48' W 063°01'10 0.4
2019-Dec-07 10:26N 17°54' W 062°54'11 9.9
2019-Dec-07 09:22N 18°00' W 063°03'0 0.1
2019-Dec-07 08:18N 18°00' W 063°03'1410.5
2019-Dec-07 06:55N 18°04' W 063°18'812.8
2019-Dec-07 06:17N 18°09' W 063°25'14513.5
2019-Dec-06 19:33N 19°36' W 065°27'416.5
2019-Dec-06 19:20N 19°37' W 065°31'  
2019-Dec-04 02:30N 26°10' W 079°30'816.8
2019-Dec-04 02:00N 26°09' W 079°39'2415.9
2019-Dec-04 00:30N 26°06' W 080°05'1 1.3
2019-Dec-03 23:29N 26°05' W 080°07'0 0.0
2019-Dec-03 21:29N 26°05' W 080°07'0 0.0
2019-Dec-03 20:59N 26°05' W 080°07'0 0.0
2019-Dec-03 20:29N 26°05' W 080°07'0 0.0
2019-Dec-03 19:59N 26°05' W 080°07'0 0.0
2019-Dec-03 16:56N 26°05' W 080°07'0 0.0
2019-Dec-03 14:59N 26°05' W 080°07'0 0.0
2019-Dec-03 13:29N 26°05' W 080°07'0 0.0
2019-Dec-03 11:29N 26°05' W 080°07'0 0.0
2019-Dec-03 09:29N 26°05' W 080°07'0 0.0
2019-Dec-03 08:59N 26°05' W 080°07'0 0.0
2019-Dec-03 08:26N 26°05' W 080°07'0 0.0
2019-Dec-03 07:29N 26°05' W 080°07'0 0.0
2019-Dec-03 06:26N 26°05' W 080°07'0 0.0
2019-Dec-03 05:29N 26°05' W 080°07'0 0.0
2019-Dec-03 04:29N 26°05' W 080°07'0 0.0
2019-Dec-03 03:59N 26°05' W 080°07'0 0.0
2019-Dec-03 03:29N 26°05' W 080°07'0 0.0
2019-Dec-03 00:29N 26°05' W 080°07'0 0.0
2019-Dec-02 22:59N 26°05' W 080°07'0 0.0
2019-Dec-02 22:29N 26°05' W 080°07'0 0.0
2019-Dec-02 21:29N 26°05' W 080°07'0 0.0
2019-Dec-02 19:29N 26°05' W 080°07'0 0.0
2019-Dec-02 18:56N 26°05' W 080°07'0 0.0
2019-Dec-02 18:29N 26°05' W 080°07'0 0.0
2019-Dec-02 17:29N 26°05' W 080°07'0 0.0
2019-Dec-02 16:59N 26°05' W 080°07'0 0.0
2019-Dec-02 15:59N 26°05' W 080°07'0 0.0
2019-Dec-02 12:59N 26°05' W 080°07'10 6.8
2019-Dec-02 11:30N 26°07' W 079°56'3611.9
2019-Dec-02 08:29N 26°19' W 079°18'  
Track history (hours):
 
Tides and Currents Weather Stations Pressure Air Temp Water Temp Dewpoint Dewpoint Depression Visibility Wind Speed Wind Dir Waves Ship Positions

Silver Shadow

Operator: V Ships Leisure SAM

Last reported at 2019-Dec-11 22:15 UTC. Time now 2019-Dec-12 08:23 UTC.
Position N 17°12' W 062°43'.

Length 186 m; draft 6.2 m.

Type: Ship. MMSI: 308628000.

Date/timePositionNaut miles runAvg speedWind from/ knotsBaromVisibWave heightAir tempDewpointWater temp
2019-Dec-11 22:15N 17°12' W 062°43'26 2.3
2019-Dec-11 10:56N 17°29' W 063°05'2512.7
2019-Dec-11 08:59N 17°47' W 063°23'8215.0
2019-Dec-11 03:29N 18°09' W 064°47'816.4
2019-Dec-11 03:00N 18°10' W 064°54'6315.8
2019-Dec-10 23:00N 18°32' W 065°57'10 9.8
2019-Dec-10 22:00N 18°28' W 066°07'0 0.2
2019-Dec-10 20:30N 18°28' W 066°07'0 0.0
2019-Dec-10 18:28N 18°28' W 066°07'0 0.0
2019-Dec-10 16:31N 18°28' W 066°07'0 0.0
2019-Dec-10 14:28N 18°28' W 066°07'0 0.0
2019-Dec-10 12:58N 18°28' W 066°07'0 0.0
2019-Dec-10 12:28N 18°28' W 066°07'0 0.2
2019-Dec-10 11:30N 18°28' W 066°07'7 7.1
2019-Dec-10 10:30N 18°33' W 066°02'1611.6
2019-Dec-10 09:07N 18°32' W 065°45'111.4
2019-Dec-10 09:00N 18°32' W 065°43'2911.5
2019-Dec-10 06:30N 18°32' W 065°13'2311.5
2019-Dec-10 04:30N 18°32' W 064°49'1111.5
2019-Dec-10 03:30N 18°31' W 064°37'93 3.2
2019-Dec-08 22:05N 18°00' W 063°04'1 0.8
2019-Dec-08 20:28N 18°01' W 063°03'0 0.0
2019-Dec-08 19:58N 18°01' W 063°03'0 0.0
2019-Dec-08 17:46N 18°01' W 063°03'2 0.3
2019-Dec-08 10:58N 17°60' W 063°05'1210.5
2019-Dec-08 09:52N 17°50' W 063°10'910.7
2019-Dec-08 09:01N 17°48' W 063°01'10 0.4
2019-Dec-07 10:26N 17°54' W 062°54'11 9.9
2019-Dec-07 09:22N 18°00' W 063°03'0 0.1
2019-Dec-07 08:18N 18°00' W 063°03'1410.5
2019-Dec-07 06:55N 18°04' W 063°18'812.8
2019-Dec-07 06:17N 18°09' W 063°25'14513.5
2019-Dec-06 19:33N 19°36' W 065°27'416.5
2019-Dec-06 19:20N 19°37' W 065°31'  
2019-Dec-04 02:30N 26°10' W 079°30'816.8
2019-Dec-04 02:00N 26°09' W 079°39'2415.9
2019-Dec-04 00:30N 26°06' W 080°05'1 1.3
2019-Dec-03 23:29N 26°05' W 080°07'0 0.0
2019-Dec-03 21:29N 26°05' W 080°07'0 0.0
2019-Dec-03 20:59N 26°05' W 080°07'0 0.0
2019-Dec-03 20:29N 26°05' W 080°07'0 0.0
2019-Dec-03 19:59N 26°05' W 080°07'0 0.0
2019-Dec-03 16:56N 26°05' W 080°07'0 0.0
2019-Dec-03 14:59N 26°05' W 080°07'0 0.0
2019-Dec-03 13:29N 26°05' W 080°07'0 0.0
2019-Dec-03 11:29N 26°05' W 080°07'0 0.0
2019-Dec-03 09:29N 26°05' W 080°07'0 0.0
2019-Dec-03 08:59N 26°05' W 080°07'0 0.0
2019-Dec-03 08:26N 26°05' W 080°07'0 0.0
2019-Dec-03 07:29N 26°05' W 080°07'0 0.0
2019-Dec-03 06:26N 26°05' W 080°07'0 0.0
2019-Dec-03 05:29N 26°05' W 080°07'0 0.0
2019-Dec-03 04:29N 26°05' W 080°07'0 0.0
2019-Dec-03 03:59N 26°05' W 080°07'0 0.0
2019-Dec-03 03:29N 26°05' W 080°07'0 0.0
2019-Dec-03 00:29N 26°05' W 080°07'0 0.0
2019-Dec-02 22:59N 26°05' W 080°07'0 0.0
2019-Dec-02 22:29N 26°05' W 080°07'0 0.0
2019-Dec-02 21:29N 26°05' W 080°07'0 0.0
2019-Dec-02 19:29N 26°05' W 080°07'0 0.0
2019-Dec-02 18:56N 26°05' W 080°07'0 0.0
2019-Dec-02 18:29N 26°05' W 080°07'0 0.0
2019-Dec-02 17:29N 26°05' W 080°07'0 0.0
2019-Dec-02 16:59N 26°05' W 080°07'0 0.0
2019-Dec-02 15:59N 26°05' W 080°07'0 0.0
2019-Dec-02 12:59N 26°05' W 080°07'10 6.8
2019-Dec-02 11:30N 26°07' W 079°56'3611.9
2019-Dec-02 08:29N 26°19' W 079°18'  

Dump ship's entire track history